Saltar al contingut principal

Dades de l'estació automàtica Maials

Selector estació i data
?
?

Resum diari

22:00 TU
Dades diàries de l'estació meteorològica
Temperatura mitjana 21.7 °C
Temperatura màxima 29.6 °C 15:08 TU
Temperatura mínima 14.6 °C 4:37 TU
Humitat relativa mitjana 67%
Precipitació acumulada 0.0 mm
Ratxa màxima del vent (2 m) 23.0 km/h - 147º 18:49 TU
Irradiació solar global 31.8 MJ/m2

El tram horari està expressat en Temps Universal (TU). Cal sumar una hora en horari d'hivern i dues en horari d'estiu per passar a l'hora oficial.

Maials

Metadades estació meteorològica
Municipi Maials
Comarca Segrià
Altitud 350 m
Data alta 20.12.2000
Estat actual Operativa
Dades de període
Període
TU
TM
°C
TX
°C
TN
°C
HRM
%
PPT
mm
VVM (2 m)
km/h
DVM (2 m)
graus
VVX (2 m)
km/h
RS
W/m2
00:00 - 00:30 17.2 17.5 16.9 100 0.0 3.2 181 9.0 0
00:30 - 01:00 16.9 17.0 16.7 96 0.0 3.6 193 9.7 0
01:00 - 01:30 16.9 17.0 16.7 87 0.0 4.0 195 9.7 0
01:30 - 02:00 16.4 16.7 16.3 88 0.0 3.2 196 7.9 0
02:00 - 02:30 16.4 16.6 16.2 87 0.0 3.2 192 7.6 0
02:30 - 03:00 15.8 16.2 15.6 91 0.0 2.5 183 7.2 0
03:00 - 03:30 15.7 15.8 15.6 92 0.0 3.2 194 8.3 0
03:30 - 04:00 15.3 15.8 15.1 95 0.0 2.5 183 9.0 0
04:00 - 04:30 15.2 15.5 14.7 95 0.0 2.5 181 10.1 5
04:30 - 05:00 14.8 15.3 14.6 99 0.0 1.8 181 6.5 34
05:00 - 05:30 15.9 16.5 15.4 92 0.0 2.5 189 7.2 115
05:30 - 06:00 16.9 17.3 16.5 85 0.0 4.0 202 12.6 208
06:00 - 06:30 17.5 17.7 17.2 80 0.0 6.5 218 16.2 304
06:30 - 07:00 18.0 18.2 17.6 77 0.0 7.2 231 16.6 401
07:00 - 07:30 18.7 19.4 18.4 73 0.0 6.1 235 16.2 498
07:30 - 08:00 19.5 20.0 19.2 67 0.0 5.8 250 12.6 589
08:00 - 08:30 20.3 20.7 19.8 63 0.0 5.4 241 13.0 671
08:30 - 09:00 21.2 21.7 20.7 60 0.0 4.0 243 13.0 756
09:00 - 09:30 22.2 22.7 21.6 56 0.0 3.6 250 11.5 825
09:30 - 10:00 23.1 23.8 22.5 52 0.0 2.9 284 11.5 882
10:00 - 10:30 23.4 24.1 23.0 50 0.0 3.6 272 10.1 928
10:30 - 11:00 24.6 25.2 24.1 48 0.0 4.0 235 12.6 961
11:00 - 11:30 24.8 25.5 24.1 47 0.0 3.6 294 11.2 982
11:30 - 12:00 25.7 26.3 24.9 45 0.0 4.0 240 13.7 989
12:00 - 12:30 26.1 26.7 25.5 43 0.0 3.6 291 10.4 986
12:30 - 13:00 26.8 27.7 26.0 40 0.0 3.2 261 11.5 967
13:00 - 13:30 27.2 27.5 26.9 38 0.0 4.0 267 11.9 938
13:30 - 14:00 28.0 28.8 27.4 36 0.0 2.5 349 9.0 891
14:00 - 14:30 28.4 29.0 27.7 35 0.0 2.9 333 11.5 835
14:30 - 15:00 28.3 28.5 28.0 36 0.0 4.0 39 10.1 769
15:00 - 15:30 29.3 29.6 28.4 34 0.0 4.0 144 13.7 694
15:30 - 16:00 28.9 29.2 27.7 40 0.0 5.0 141 16.9 624
16:00 - 16:30 27.3 27.6 27.0 47 0.0 5.4 145 17.3 524
16:30 - 17:00 26.7 27.3 26.2 49 0.0 6.8 160 18.7 431
17:00 - 17:30 26.1 26.4 25.9 53 0.0 6.5 163 18.0 335
17:30 - 18:00 25.4 25.9 24.8 57 0.0 6.5 163 18.0 242
18:00 - 18:30 24.4 24.9 24.0 61 0.0 6.5 161 19.8 154
18:30 - 19:00 23.5 24.0 23.0 63 0.0 6.8 163 23.0 79
19:00 - 19:30 22.6 23.0 22.2 66 0.0 5.8 166 18.4 24
19:30 - 20:00 21.9 22.2 21.7 69 0.0 5.8 165 15.1 6
20:00 - 20:30 21.4 21.6 21.0 73 0.0 5.4 156 18.7 3
20:30 - 21:00 20.6 21.0 20.3 79 0.0 5.4 160 18.0 3
21:00 - 21:30 20.1 20.3 19.9 81 0.0 5.4 155 17.3 3
21:30 - 22:00 19.7 19.9 19.6 84 0.0 5.4 157 16.2 3
22:00 - 22:30 19.4 19.6 19.3 87 0.0 5.0 155 16.9 3

Les dades en taronja només han passat un control de qualitat automàtic. Resta pendent la seva validació definitiva.